TimeHST,TemperatureF,Dew PointF,Humidity,Sea Level PressureIn,VisibilityMPH,Wind Direction,Wind SpeedMPH,Gust SpeedMPH,PrecipitationIn,Events,Conditions,WindDirDegrees,DateUTC
12:53 AM,73.9,62.1,66,30.06,10.0,East,4.6,-,N/A,,Clear,90,2013-11-27 10:53:00
1:53 AM,75.0,62.1,64,30.05,10.0,Calm,Calm,-,N/A,,Scattered Clouds,0,2013-11-27 11:53:00
2:53 AM,73.0,61.0,66,30.03,10.0,Calm,Calm,-,N/A,,Clear,0,2013-11-27 12:53:00
3:53 AM,73.9,61.0,64,30.02,10.0,Calm,Calm,-,N/A,,Clear,0,2013-11-27 13:53:00
4:53 AM,72.0,61.0,68,30.02,10.0,NE,5.8,-,N/A,,Partly Cloudy,40,2013-11-27 14:53:00
5:53 AM,70.0,61.0,73,30.02,10.0,ENE,4.6,-,N/A,,Clear,60,2013-11-27 15:53:00
6:53 AM,71.1,60.1,68,30.03,10.0,Calm,Calm,-,N/A,,Clear,0,2013-11-27 16:53:00
7:53 AM,75.9,62.1,62,30.04,10.0,SE,3.5,-,N/A,,Clear,130,2013-11-27 17:53:00
8:53 AM,80.1,61.0,52,30.04,10.0,South,4.6,-,N/A,,Clear,190,2013-11-27 18:53:00
9:53 AM,80.1,64.0,58,30.04,10.0,WSW,5.8,-,N/A,,Clear,250,2013-11-27 19:53:00
10:53 AM,82.0,66.0,58,30.02,10.0,WNW,5.8,-,N/A,,Clear,290,2013-11-27 20:53:00
11:53 AM,84.0,64.9,53,29.99,10.0,NNW,12.7,-,N/A,,Clear,340,2013-11-27 21:53:00
12:53 PM,84.0,64.9,53,29.96,10.0,NNW,16.1,-,N/A,,Clear,330,2013-11-27 22:53:00
1:53 PM,84.9,66.0,53,29.94,10.0,NNW,16.1,-,N/A,,Clear,340,2013-11-27 23:53:00
2:53 PM,84.9,64.0,49,29.93,10.0,NNW,16.1,-,N/A,,Clear,330,2013-11-28 00:53:00
3:53 PM,84.9,63.0,48,29.92,10.0,NNW,13.8,-,N/A,,Clear,340,2013-11-28 01:53:00
4:53 PM,82.9,63.0,51,29.92,10.0,NNW,11.5,-,N/A,,Clear,330,2013-11-28 02:53:00
5:53 PM,80.1,63.0,56,29.93,10.0,NW,3.5,-,N/A,,Clear,320,2013-11-28 03:53:00
6:53 PM,79.0,64.9,62,29.95,10.0,SE,6.9,-,N/A,,Clear,140,2013-11-28 04:53:00
7:53 PM,77.0,62.1,60,29.96,10.0,SE,9.2,-,N/A,,Clear,130,2013-11-28 05:53:00
8:53 PM,77.0,63.0,62,29.99,10.0,Variable,3.5,-,N/A,,Clear,0,2013-11-28 06:53:00
9:53 PM,75.0,64.0,69,29.99,10.0,SE,6.9,-,N/A,,Clear,140,2013-11-28 07:53:00
10:53 PM,75.9,64.0,67,29.99,10.0,ESE,12.7,-,N/A,,Clear,120,2013-11-28 08:53:00
11:53 PM,75.0,64.0,69,29.99,10.0,SE,12.7,-,N/A,,Clear,130,2013-11-28 09:53:00